Time;durP1;ratioP1;P1;durP2;ratioP2;P2;SDS_P1;SDS_P2;PMS_P1;PMS_P2;Temp;Humidity;BMP_temperature;BMP_pressure;BME280_temperature;BME280_humidity;BME280_pressure;Samples;Min_cycle;Max_cycle;Signal;HPM_P1;HPM_P2
2021/03/28 00:00:58;;;;;;;4.53;2.72;;;18.10;50.80;;;;;;4897502;29;20208;-66
2021/03/28 00:03:32;;;;;;;4.35;2.88;;;18.00;50.80;;;;;;4881190;29;20184;-66
2021/03/28 00:06:13;;;;;;;3.33;2.65;;;18.00;50.80;;;;;;4867372;29;20172;-66
2021/03/28 00:08:39;;;;;;;4.68;2.85;;;18.00;50.80;;;;;;4881112;29;20184;-68
2021/03/28 00:11:19;;;;;;;3.55;2.70;;;18.00;50.80;;;;;;4866355;29;20183;-67
2021/03/28 00:13:55;;;;;;;4.32;2.97;;;18.00;50.80;;;;;;4866356;29;20177;-67
2021/03/28 00:16:26;;;;;;;6.07;3.20;;;18.00;50.70;;;;;;4865671;29;20356;-68
2021/03/28 00:18:58;;;;;;;3.85;2.88;;;18.00;50.70;;;;;;4850736;29;20187;-66
2021/03/28 00:21:43;;;;;;;3.90;2.80;;;17.90;50.80;;;;;;4866340;29;20212;-66
2021/03/28 00:24:11;;;;;;;3.70;2.70;;;18.00;50.80;;;;;;4883463;29;20209;-67
2021/03/28 00:26:40;;;;;;;4.25;2.72;;;17.90;50.70;;;;;;4898158;29;20184;-66
2021/03/28 00:29:23;;;;;;;4.85;2.80;;;17.90;50.70;;;;;;4866551;29;20253;-66
2021/03/28 00:32:07;;;;;;;5.10;2.80;;;17.90;50.70;;;;;;4867218;29;20191;-65
2021/03/28 00:34:38;;;;;;;4.43;2.65;;;17.90;50.70;;;;;;4880998;29;20756;-66
2021/03/28 00:37:09;;;;;;;4.80;2.90;;;17.90;50.70;;;;;;4865372;29;20173;-66
2021/03/28 00:39:46;;;;;;;3.28;2.50;;;17.80;50.80;;;;;;4897696;29;20185;-67
2021/03/28 00:42:35;;;;;;;4.95;2.70;;;17.80;50.70;;;;;;4897915;29;20191;-67
2021/03/28 00:45:13;;;;;;;4.75;2.60;;;17.80;50.80;;;;;;4866994;29;20709;-66
2021/03/28 00:47:40;;;;;;;3.58;2.58;;;17.80;50.80;;;;;;4897740;29;20619;-66
2021/03/28 00:50:10;;;;;;;4.90;2.90;;;17.80;50.80;;;;;;4850025;29;20184;-66
2021/03/28 00:52:41;;;;;;;4.78;3.33;;;17.80;50.70;;;;;;4864728;29;20541;-67
2021/03/28 00:55:20;;;;;;;4.15;2.83;;;17.80;50.70;;;;;;4850363;29;20185;-68
2021/03/28 00:57:56;;;;;;;3.75;2.40;;;17.80;50.70;;;;;;4865476;29;20180;-67
2021/03/28 01:00:40;;;;;;;4.72;3.03;;;17.80;50.70;;;;;;4866537;29;20204;-65
2021/03/28 01:03:10;;;;;;;6.47;3.17;;;17.70;50.70;;;;;;4897651;29;20191;-67
2021/03/28 01:05:40;;;;;;;4.80;2.42;;;17.70;50.70;;;;;;4865232;29;20188;-66
2021/03/28 01:08:25;;;;;;;3.95;2.60;;;17.70;50.70;;;;;;4880793;29;20237;-67
2021/03/28 01:11:41;;;;;;;4.07;2.70;;;17.70;50.80;;;;;;4866825;29;20176;-66
2021/03/28 01:14:31;;;;;;;3.33;2.60;;;17.70;50.80;;;;;;4821747;29;20179;-67
2021/03/28 01:17:12;;;;;;;4.90;2.65;;;17.70;50.80;;;;;;4867128;29;20185;-68
2021/03/28 01:20:12;;;;;;;4.95;2.50;;;17.70;50.80;;;;;;4880572;29;20696;-66
2021/03/28 01:22:53;;;;;;;3.90;2.42;;;17.70;50.70;;;;;;4865009;29;20631;-68
2021/03/28 01:25:55;;;;;;;2.63;2.30;;;17.70;50.70;;;;;;4897149;29;20172;-67
2021/03/28 01:28:47;;;;;;;3.88;2.38;;;17.60;50.70;;;;;;4880446;29;20303;-66
2021/03/28 01:31:26;;;;;;;3.88;2.70;;;17.60;50.70;;;;;;4877271;29;20189;-65
2021/03/28 01:34:04;;;;;;;3.10;2.70;;;17.60;50.70;;;;;;4879951;29;20207;-65
2021/03/28 01:36:45;;;;;;;3.05;2.30;;;17.60;50.70;;;;;;4880447;29;20164;-66
2021/03/28 01:39:23;;;;;;;3.15;2.38;;;17.60;50.70;;;;;;4866534;29;20183;-66
2021/03/28 01:41:57;;;;;;;3.40;2.97;;;17.60;50.70;;;;;;4865769;29;20375;-66
2021/03/28 01:44:31;;;;;;;4.03;2.85;;;17.60;50.80;;;;;;4865438;29;20536;-66
2021/03/28 01:47:00;;;;;;;3.00;2.60;;;17.60;50.70;;;;;;4880370;29;20176;-66
2021/03/28 01:49:36;;;;;;;2.97;2.67;;;17.60;50.70;;;;;;4897086;29;20169;-67
2021/03/28 01:52:11;;;;;;;2.50;2.30;;;17.60;50.70;;;;;;4897223;29;20176;-67
2021/03/28 01:54:53;;;;;;;4.05;2.78;;;17.60;50.70;;;;;;4880626;29;20188;-66
2021/03/28 01:57:37;;;;;;;5.53;2.92;;;17.60;50.70;;;;;;4866193;29;20176;-65
2021/03/28 02:00:24;;;;;;;3.75;2.53;;;17.50;50.70;;;;;;4896974;29;20228;-65
2021/03/28 02:02:59;;;;;;;4.20;2.50;;;17.50;50.70;;;;;;4893890;29;20232;-66
2021/03/28 02:05:34;;;;;;;3.33;2.40;;;17.50;50.70;;;;;;4896858;29;20645;-67
2021/03/28 02:08:27;;;;;;;5.22;2.83;;;17.50;50.80;;;;;;4896436;29;20195;-67
2021/03/28 02:11:23;;;;;;;4.18;2.78;;;17.50;50.80;;;;;;4897080;29;20187;-67
2021/03/28 02:14:33;;;;;;;5.05;3.00;;;17.50;50.70;;;;;;4895789;29;20236;-67
2021/03/28 02:17:17;;;;;;;4.82;2.45;;;17.50;50.70;;;;;;4886368;29;20185;-69
2021/03/28 02:19:58;;;;;;;5.00;2.92;;;17.50;50.70;;;;;;4896761;29;20176;-67
2021/03/28 02:23:02;;;;;;;2.95;2.33;;;17.50;50.70;;;;;;4895419;29;20204;-69
2021/03/28 02:25:45;;;;;;;4.20;2.55;;;17.50;50.70;;;;;;4900011;29;20182;-68
2021/03/28 02:28:31;;;;;;;3.00;2.30;;;17.50;50.70;;;;;;4900326;29;20180;-67
2021/03/28 02:31:11;;;;;;;4.45;2.20;;;17.40;50.70;;;;;;4898518;29;20168;-68
2021/03/28 02:34:02;;;;;;;5.70;3.17;;;17.40;50.70;;;;;;4883299;29;20173;-65
2021/03/28 02:36:35;;;;;;;3.95;2.50;;;17.40;50.70;;;;;;4882552;29;20176;-67
2021/03/28 02:39:12;;;;;;;3.20;2.38;;;17.40;50.70;;;;;;4898998;29;20187;-68
2021/03/28 02:41:49;;;;;;;3.40;2.42;;;17.40;50.70;;;;;;4899815;29;20212;-68
2021/03/28 02:44:34;;;;;;;5.95;2.38;;;17.40;50.70;;;;;;4898284;29;20169;-67
2021/03/28 02:47:15;;;;;;;3.33;2.63;;;17.40;50.70;;;;;;4898897;29;20260;-68
2021/03/28 02:50:06;;;;;;;3.30;2.20;;;17.40;50.70;;;;;;4898661;29;20177;-66
2021/03/28 02:52:49;;;;;;;2.83;2.10;;;17.40;50.80;;;;;;4872723;29;20283;-67
2021/03/28 02:55:37;;;;;;;3.05;2.30;;;17.40;50.70;;;;;;4898801;29;20208;-67
2021/03/28 02:58:40;;;;;;;2.92;2.13;;;17.40;50.80;;;;;;4866939;29;20272;-67
2021/03/28 03:01:21;;;;;;;3.50;2.28;;;17.30;50.70;;;;;;4874431;29;20223;-68
2021/03/28 03:03:56;;;;;;;3.65;2.22;;;17.30;50.70;;;;;;4883015;29;20168;-67
2021/03/28 03:06:40;;;;;;;3.83;2.40;;;17.40;50.80;;;;;;4898943;29;20180;-68
2021/03/28 03:09:20;;;;;;;3.42;2.25;;;17.30;50.70;;;;;;4899525;29;20176;-68
2021/03/28 03:12:07;;;;;;;5.03;2.67;;;17.30;50.70;;;;;;4898994;29;20532;-68
2021/03/28 03:14:55;;;;;;;3.65;2.53;;;17.30;50.70;;;;;;4899219;29;20176;-68
2021/03/28 03:17:30;;;;;;;4.32;2.45;;;17.30;50.70;;;;;;4867825;29;20181;-66
2021/03/28 03:20:14;;;;;;;3.65;2.40;;;17.30;50.70;;;;;;4898706;29;20582;-69
2021/03/28 03:22:52;;;;;;;3.60;2.53;;;17.30;50.70;;;;;;4899143;29;20175;-66
2021/03/28 03:25:39;;;;;;;4.43;2.30;;;17.30;50.70;;;;;;4898641;29;20189;-68
2021/03/28 03:28:20;;;;;;;4.63;2.17;;;17.30;50.70;;;;;;4899324;29;20195;-66
2021/03/28 03:31:04;;;;;;;4.30;2.40;;;17.30;50.80;;;;;;4868026;29;20717;-67
2021/03/28 03:33:58;;;;;;;4.07;2.10;;;17.30;50.80;;;;;;4898120;29;20187;-67
2021/03/28 03:36:58;;;;;;;3.00;2.30;;;17.30;50.70;;;;;;4882107;29;20263;-67
2021/03/28 03:40:02;;;;;;;3.70;2.25;;;17.20;50.70;;;;;;4881338;29;20184;-67
2021/03/28 03:42:31;;;;;;;4.50;2.25;;;17.20;50.70;;;;;;4881946;29;20288;-68
2021/03/28 03:45:35;;;;;;;3.55;2.08;;;17.20;50.60;;;;;;4898833;29;20547;-67
2021/03/28 03:48:08;;;;;;;2.95;2.05;;;17.30;50.80;;;;;;4898207;29;20760;-69
2021/03/28 03:50:52;;;;;;;5.10;2.20;;;17.20;50.70;;;;;;4882346;29;20169;-67
2021/03/28 03:53:33;;;;;;;2.90;2.33;;;17.20;50.70;;;;;;4898807;29;20204;-67
2021/03/28 03:56:23;;;;;;;3.15;2.22;;;17.20;50.70;;;;;;4883142;29;20589;-67
2021/03/28 03:59:16;;;;;;;1.92;1.75;;;17.20;50.70;;;;;;4897769;29;20653;-66
2021/03/28 04:01:45;;;;;;;5.28;2.15;;;17.20;50.70;;;;;;4882744;29;20280;-67
2021/03/28 04:04:56;;;;;;;4.00;2.20;;;17.20;50.80;;;;;;4881768;29;20196;-67
2021/03/28 04:08:03;;;;;;;3.78;2.40;;;17.20;50.70;;;;;;4897893;29;20236;-68
2021/03/28 04:10:57;;;;;;;3.55;2.00;;;17.20;50.80;;;;;;4856724;29;20254;-68
2021/03/28 04:13:28;;;;;;;3.13;1.92;;;17.20;50.80;;;;;;4867126;29;20176;-68
2021/03/28 04:16:12;;;;;;;2.75;1.95;;;17.20;50.80;;;;;;4881046;29;20169;-68
2021/03/28 04:19:02;;;;;;;4.03;2.00;;;17.10;50.70;;;;;;4898212;29;20657;-68
2021/03/28 04:21:47;;;;;;;3.50;2.03;;;17.10;50.70;;;;;;4897349;29;20716;-68
2021/03/28 04:24:37;;;;;;;3.78;2.17;;;17.10;50.80;;;;;;4881525;29;20172;-68
2021/03/28 04:27:15;;;;;;;3.28;1.85;;;17.10;50.80;;;;;;4883525;29;20236;-68
2021/03/28 04:29:48;;;;;;;2.70;1.83;;;17.10;50.90;;;;;;4897217;29;20249;-66
2021/03/28 04:32:38;;;;;;;3.72;2.08;;;17.10;50.80;;;;;;4866049;29;20173;-65
2021/03/28 04:35:23;;;;;;;2.65;1.90;;;17.10;50.80;;;;;;4881127;29;20645;-66
2021/03/28 04:37:56;;;;;;;2.80;1.63;;;17.10;50.80;;;;;;4880545;29;20183;-67
2021/03/28 04:40:52;;;;;;;2.90;1.90;;;17.10;50.90;;;;;;4880986;29;20196;-67
2021/03/28 04:43:48;;;;;;;2.92;2.20;;;17.10;50.90;;;;;;4897539;29;20244;-68
2021/03/28 04:46:45;;;;;;;4.35;2.28;;;17.10;50.90;;;;;;4897336;29;20173;-67
2021/03/28 04:49:21;;;;;;;2.95;1.95;;;17.10;50.90;;;;;;4880996;29;20547;-68
2021/03/28 04:52:19;;;;;;;3.83;2.20;;;17.10;50.90;;;;;;4880586;29;20211;-67
2021/03/28 04:55:06;;;;;;;3.97;2.00;;;17.00;50.90;;;;;;4874278;29;20197;-67
2021/03/28 04:57:49;;;;;;;3.80;2.28;;;17.00;50.90;;;;;;4896957;29;20183;-67
2021/03/28 05:00:54;;;;;;;1.98;1.73;;;17.00;50.90;;;;;;4881253;29;20192;-67
2021/03/28 05:03:39;;;;;;;2.22;2.00;;;17.00;50.90;;;;;;4791211;29;20656;-66
2021/03/28 05:06:36;;;;;;;3.38;2.00;;;17.10;50.90;;;;;;4877003;29;20211;-67
2021/03/28 05:09:34;;;;;;;4.20;2.30;;;17.00;51.00;;;;;;4847685;29;20235;-68
2021/03/28 05:12:27;;;;;;;2.65;1.83;;;17.10;51.00;;;;;;4883016;29;20179;-68
2021/03/28 05:15:22;;;;;;;5.03;2.25;;;17.10;51.10;;;;;;4882077;29;20276;-67
2021/03/28 05:18:26;;;;;;;2.60;2.00;;;17.20;51.20;;;;;;4882851;29;20183;-66
2021/03/28 05:21:34;;;;;;;2.30;1.88;;;17.30;51.10;;;;;;4897343;29;20226;-66
2021/03/28 05:24:11;;;;;;;2.10;1.45;;;17.50;50.90;;;;;;4880547;29;20179;-66
2021/03/28 05:26:39;;;;;;;2.70;1.45;;;17.70;50.80;;;;;;4896483;29;20183;-67
2021/03/28 05:29:24;;;;;;;4.40;1.90;;;17.80;50.50;;;;;;4897624;29;20259;-65
2021/03/28 05:32:43;;;;;;;4.07;1.70;;;18.00;50.40;;;;;;4896851;29;20651;-66
2021/03/28 05:35:24;;;;;;;2.38;2.13;;;18.10;50.00;;;;;;4839874;29;20189;-66
2021/03/28 05:38:23;;;;;;;1.77;1.67;;;18.20;49.80;;;;;;4897360;29;20179;-66
2021/03/28 05:41:02;;;;;;;2.90;1.80;;;18.30;49.60;;;;;;4896641;29;20212;-67
2021/03/28 05:43:43;;;;;;;3.10;1.60;;;18.40;49.50;;;;;;4882049;29;20184;-66
2021/03/28 05:46:41;;;;;;;3.70;1.83;;;18.40;49.40;;;;;;4896668;29;20204;-68
2021/03/28 05:49:42;;;;;;;2.38;1.83;;;18.50;49.20;;;;;;4880542;29;20180;-68
2021/03/28 05:52:26;;;;;;;1.45;1.35;;;18.70;49.00;;;;;;4878452;29;20244;-67
2021/03/28 05:55:07;;;;;;;1.83;1.30;;;18.70;48.90;;;;;;4896477;29;20177;-66
2021/03/28 05:57:44;;;;;;;2.08;1.42;;;18.60;48.90;;;;;;4898966;29;20181;-67
2021/03/28 06:00:34;;;;;;;1.98;1.60;;;18.60;49.00;;;;;;4883773;29;20165;-66
2021/03/28 06:03:14;;;;;;;2.22;1.60;;;18.50;49.10;;;;;;4897588;29;20235;-67
2021/03/28 06:06:11;;;;;;;2.38;1.63;;;18.40;49.20;;;;;;4900336;29;20546;-67
2021/03/28 06:09:13;;;;;;;3.17;1.73;;;18.40;49.50;;;;;;4899873;29;20173;-68
2021/03/28 06:11:57;;;;;;;2.10;1.50;;;18.30;49.50;;;;;;4900384;29;20211;-67
2021/03/28 06:14:41;;;;;;;2.95;1.83;;;18.20;49.80;;;;;;4899778;29;20173;-69
2021/03/28 06:17:25;;;;;;;2.33;1.70;;;18.10;49.80;;;;;;4900485;29;20271;-67
2021/03/28 06:20:11;;;;;;;3.63;1.90;;;18.00;49.90;;;;;;4883792;29;20645;-66
2021/03/28 06:22:41;;;;;;;1.85;1.40;;;18.00;50.00;;;;;;4898596;29;20192;-67
2021/03/28 06:25:37;;;;;;;2.97;1.63;;;18.00;50.10;;;;;;4883357;29;20189;-67
2021/03/28 06:28:24;;;;;;;3.35;1.80;;;18.10;50.30;;;;;;4899736;29;20199;-65
2021/03/28 06:31:28;;;;;;;2.75;1.75;;;18.10;50.10;;;;;;4900348;29;20173;-67
2021/03/28 06:34:24;;;;;;;2.20;1.67;;;18.00;50.10;;;;;;4881662;29;20255;-66
2021/03/28 06:37:27;;;;;;;2.92;1.60;;;18.00;50.20;;;;;;4899551;29;20180;-66
2021/03/28 06:40:38;;;;;;;2.30;1.70;;;17.90;50.20;;;;;;4883215;29;20191;-67
2021/03/28 06:43:31;;;;;;;2.65;1.60;;;17.90;50.30;;;;;;4882664;29;20566;-66
2021/03/28 06:46:23;;;;;;;3.10;1.75;;;17.80;50.30;;;;;;4883068;29;20259;-67
2021/03/28 06:49:13;;;;;;;1.83;1.48;;;17.80;50.40;;;;;;4899942;29;20279;-67
2021/03/28 06:52:01;;;;;;;2.50;1.50;;;17.90;50.50;;;;;;4899720;29;20193;-67
2021/03/28 06:54:46;;;;;;;2.90;1.55;;;17.90;50.40;;;;;;4898561;29;20240;-67
2021/03/28 06:57:30;;;;;;;2.13;1.55;;;17.90;50.70;;;;;;4899295;29;20181;-67
2021/03/28 07:00:16;;;;;;;2.55;1.73;;;17.90;50.50;;;;;;4899700;29;20241;-66
2021/03/28 07:03:23;;;;;;;2.92;1.75;;;17.80;50.50;;;;;;4898207;29;20228;-66
2021/03/28 07:06:14;;;;;;;2.38;1.60;;;17.80;50.50;;;;;;4885572;29;20264;-66
2021/03/28 07:08:51;;;;;;;2.58;1.77;;;17.80;50.50;;;;;;4854095;29;20176;-67
2021/03/28 07:11:28;;;;;;;2.58;1.42;;;17.80;50.60;;;;;;4882472;29;20605;-67
2021/03/28 07:14:32;;;;;;;2.25;1.20;;;17.80;50.60;;;;;;4883201;29;20532;-68
2021/03/28 07:17:23;;;;;;;2.00;1.33;;;17.80;50.70;;;;;;4861092;29;20606;-66
2021/03/28 07:20:10;;;;;;;2.33;1.48;;;17.80;50.70;;;;;;4899369;29;20188;-68
2021/03/28 07:22:56;;;;;;;2.28;1.30;;;17.80;50.60;;;;;;4882332;29;20188;-67
2021/03/28 07:25:27;;;;;;;2.85;1.40;;;17.80;50.70;;;;;;4852992;29;20260;-67
2021/03/28 07:28:22;;;;;;;1.50;1.40;;;17.80;50.80;;;;;;4899220;29;20176;-66
2021/03/28 07:31:26;;;;;;;2.38;1.50;;;17.80;50.70;;;;;;4848415;29;20199;-66
2021/03/28 07:34:30;;;;;;;1.88;1.23;;;17.70;50.80;;;;;;4866944;29;20177;-65
2021/03/28 07:37:13;;;;;;;2.63;1.50;;;17.70;50.80;;;;;;4899068;29;20210;-65
2021/03/28 07:40:09;;;;;;;2.83;1.60;;;17.70;50.80;;;;;;4898207;29;20208;-66
2021/03/28 07:42:54;;;;;;;2.10;1.38;;;17.70;51.00;;;;;;4881844;29;20724;-67
2021/03/28 07:45:22;;;;;;;1.75;1.58;;;17.60;50.90;;;;;;4883318;29;20241;-66
2021/03/28 07:48:09;;;;;;;1.33;1.23;;;17.60;51.10;;;;;;4898509;29;20172;-66
2021/03/28 07:51:01;;;;;;;2.60;1.55;;;17.60;51.10;;;;;;4898653;29;20181;-66
2021/03/28 07:53:46;;;;;;;1.60;1.23;;;17.60;51.10;;;;;;4898001;29;20213;-66
2021/03/28 07:56:14;;;;;;;1.48;1.25;;;17.50;51.20;;;;;;4898712;29;20176;-65
2021/03/28 07:58:58;;;;;;;3.58;1.40;;;17.50;51.20;;;;;;4898604;29;20232;-67
2021/03/28 08:01:36;;;;;;;2.15;1.40;;;17.50;51.20;;;;;;4882022;29;20239;-66
2021/03/28 08:04:25;;;;;;;3.08;1.33;;;17.50;51.20;;;;;;4881716;29;20168;-66
2021/03/28 08:07:04;;;;;;;1.40;1.30;;;17.60;51.10;;;;;;4896962;29;20176;-66
2021/03/28 08:09:48;;;;;;;2.40;1.30;;;17.60;51.10;;;;;;4881803;29;20180;-67
2021/03/28 08:12:37;;;;;;;1.95;1.30;;;17.60;51.10;;;;;;4881641;29;20181;-66
2021/03/28 08:15:26;;;;;;;1.83;1.42;;;17.60;51.10;;;;;;4897879;29;20203;-67
2021/03/28 08:18:13;;;;;;;1.52;1.30;;;17.60;51.10;;;;;;4881608;29;20208;-65
2021/03/28 08:21:04;;;;;;;2.42;1.52;;;17.60;51.10;;;;;;4896577;29;20263;-65
2021/03/28 08:23:32;;;;;;;2.85;1.50;;;17.60;51.10;;;;;;4897993;29;20168;-67
2021/03/28 08:26:12;;;;;;;3.50;1.65;;;17.60;51.10;;;;;;4898113;29;20653;-66
2021/03/28 08:29:05;;;;;;;3.45;1.55;;;17.60;51.30;;;;;;4896271;29;20179;-63
2021/03/28 08:31:47;;;;;;;2.58;1.48;;;17.70;51.30;;;;;;4897877;29;20180;-64
2021/03/28 08:34:50;;;;;;;4.22;1.65;;;17.80;51.90;;;;;;4897057;29;20549;-63
2021/03/28 08:37:38;;;;;;;3.42;1.63;;;17.90;51.20;;;;;;4898206;29;20177;-64
2021/03/28 08:40:25;;;;;;;3.35;1.38;;;18.00;51.10;;;;;;4896865;29;20191;-63
2021/03/28 08:43:09;;;;;;;5.30;1.60;;;18.00;51.10;;;;;;4880499;29;20525;-62
2021/03/28 08:46:06;;;;;;;4.10;2.05;;;18.00;51.10;;;;;;4897465;29;20229;-63
2021/03/28 08:49:05;;;;;;;5.68;2.05;;;18.10;51.10;;;;;;4897637;29;20238;-62
2021/03/28 08:51:50;;;;;;;4.00;1.70;;;18.10;51.10;;;;;;4896618;29;20587;-61
2021/03/28 08:54:41;;;;;;;3.97;1.70;;;18.20;51.30;;;;;;4897734;29;20239;-62
2021/03/28 08:57:28;;;;;;;5.07;1.65;;;18.20;52.00;;;;;;4895350;29;20185;-81
2021/03/28 09:00:20;;;;;;;4.00;1.98;;;18.30;51.80;;;;;;4881049;29;20671;-69
2021/03/28 09:02:53;;;;;;;3.60;1.70;;;18.30;51.50;;;;;;4897492;29;20231;-64
2021/03/28 09:05:41;;;;;;;4.97;2.25;;;18.30;51.60;;;;;;4880767;29;20596;-63
2021/03/28 09:08:23;;;;;;;4.20;2.00;;;18.40;52.10;;;;;;4882094;29;20180;-71
2021/03/28 09:10:49;;;;;;;3.70;1.77;;;18.30;51.70;;;;;;4880753;29;20177;-71
2021/03/28 09:13:49;;;;;;;7.15;2.15;;;18.30;52.00;;;;;;4897500;29;20624;-62
2021/03/28 09:16:18;;;;;;;6.22;2.08;;;18.30;52.00;;;;;;4880768;29;20180;-67
2021/03/28 09:18:59;;;;;;;7.03;2.58;;;18.20;52.10;;;;;;4864300;29;20223;-69
2021/03/28 09:21:28;;;;;;;6.45;1.98;;;18.30;52.10;;;;;;4874887;29;20208;-67
2021/03/28 09:24:31;;;;;;;3.58;1.90;;;18.30;52.00;;;;;;4876930;29;20177;-67
2021/03/28 09:27:14;;;;;;;3.22;1.60;;;18.40;52.00;;;;;;4878579;29;20701;-72
2021/03/28 09:29:51;;;;;;;4.13;1.58;;;18.40;52.00;;;;;;4861758;29;20229;-67
2021/03/28 09:32:29;;;;;;;2.45;1.52;;;18.40;52.00;;;;;;4879723;29;20172;-68
2021/03/28 09:35:14;;;;;;;3.50;1.90;;;18.40;52.00;;;;;;4874809;29;20555;-68
2021/03/28 09:37:44;;;;;;;3.78;1.63;;;18.40;51.90;;;;;;4882291;29;20181;-73
2021/03/28 09:40:22;;;;;;;6.03;1.75;;;18.40;51.90;;;;;;4880732;29;20178;-68
2021/03/28 09:43:09;;;;;;;4.28;1.85;;;18.30;51.90;;;;;;4865675;29;20193;-68
2021/03/28 09:46:12;;;;;;;2.20;1.40;;;18.40;51.80;;;;;;4880319;29;20176;-65
2021/03/28 09:48:43;;;;;;;4.30;1.95;;;18.30;51.70;;;;;;4881981;29;20173;-66
2021/03/28 09:51:27;;;;;;;3.75;1.60;;;18.30;51.60;;;;;;4878585;29;20611;-66
2021/03/28 09:54:02;;;;;;;4.80;1.90;;;18.30;51.60;;;;;;4881510;29;20181;-72
2021/03/28 09:56:42;;;;;;;4.95;2.03;;;18.30;51.60;;;;;;4880569;29;20188;-67
2021/03/28 09:59:26;;;;;;;5.82;1.65;;;18.20;51.50;;;;;;4864896;29;20204;-72
2021/03/28 10:01:58;;;;;;;4.38;2.30;;;18.20;51.40;;;;;;4881661;29;20234;-66
2021/03/28 10:05:15;;;;;;;3.30;1.70;;;18.30;51.30;;;;;;4865099;29;20205;-67
2021/03/28 10:08:00;;;;;;;4.78;2.13;;;18.30;51.20;;;;;;4829723;29;20189;-74
2021/03/28 10:10:38;;;;;;;7.03;2.13;;;18.30;51.10;;;;;;4864943;29;20169;-66
2021/03/28 10:13:19;;;;;;;4.75;2.47;;;18.20;51.00;;;;;;4850779;29;20233;-67
2021/03/28 10:16:03;;;;;;;5.22;1.88;;;18.20;50.90;;;;;;4881765;29;20173;-67
2021/03/28 10:18:54;;;;;;;3.72;1.63;;;18.20;50.70;;;;;;4881725;29;20173;-68
2021/03/28 10:21:52;;;;;;;4.38;1.88;;;18.20;50.70;;;;;;4866821;29;20224;-65
2021/03/28 10:24:39;;;;;;;3.70;1.95;;;18.20;50.60;;;;;;4881357;29;20177;-60
2021/03/28 10:27:32;;;;;;;5.15;1.92;;;18.20;50.40;;;;;;4863059;29;20177;-72
2021/03/28 10:30:21;;;;;;;4.78;1.88;;;18.30;50.20;;;;;;4861910;29;20189;-73
2021/03/28 10:32:47;;;;;;;6.97;2.30;;;18.30;50.10;;;;;;4843156;29;20284;-72
2021/03/28 10:35:30;;;;;;;6.28;1.85;;;18.30;50.10;;;;;;4862304;29;20253;-72
2021/03/28 10:38:21;;;;;;;4.82;1.48;;;18.20;50.00;;;;;;4862809;29;20188;-72
2021/03/28 10:41:22;;;;;;;10.18;2.47;;;18.20;49.90;;;;;;4862838;29;20217;-71
2021/03/28 10:44:29;;;;;;;4.35;1.85;;;18.30;50.40;;;;;;4861713;29;20542;-69
2021/03/28 10:47:24;;;;;;;3.95;1.92;;;18.30;49.60;;;;;;4823816;29;20191;-73
2021/03/28 10:50:07;;;;;;;4.88;2.08;;;18.20;49.50;;;;;;4860548;29;20198;-69
2021/03/28 10:52:59;;;;;;;5.00;1.85;;;18.20;49.50;;;;;;4845862;29;20198;-67
2021/03/28 10:55:49;;;;;;;4.55;1.48;;;18.20;49.60;;;;;;4844668;29;20174;-76
2021/03/28 10:58:56;;;;;;;3.78;2.00;;;18.20;49.60;;;;;;4863074;29;20174;-71
2021/03/28 11:01:39;;;;;;;7.25;2.08;;;18.20;49.40;;;;;;4862846;29;20224;-65
2021/03/28 11:04:21;;;;;;;6.72;1.90;;;18.10;49.20;;;;;;4861758;29;20182;-67
2021/03/28 11:06:47;;;;;;;7.22;1.92;;;18.20;49.50;;;;;;4862442;29;20234;-66
2021/03/28 11:09:44;;;;;;;5.13;1.67;;;18.20;50.00;;;;;;4862481;29;20178;-71
2021/03/28 11:12:19;;;;;;;3.63;1.80;;;18.20;49.50;;;;;;4861202;29;20198;-68
2021/03/28 11:14:51;;;;;;;6.32;1.92;;;18.10;49.20;;;;;;4862209;29;20178;-68
2021/03/28 11:17:37;;;;;;;3.92;1.70;;;18.10;49.40;;;;;;4860503;29;20264;-68
2021/03/28 11:20:05;;;;;;;4.63;1.70;;;18.10;49.30;;;;;;4861718;29;20200;-68
2021/03/28 11:22:46;;;;;;;4.25;1.67;;;18.10;49.30;;;;;;4860591;29;20650;-74
2021/03/28 11:25:32;;;;;;;5.20;1.80;;;18.10;49.40;;;;;;4866558;29;20220;-69
2021/03/28 11:28:03;;;;;;;4.63;1.70;;;18.10;49.50;;;;;;4879998;29;20193;-70
2021/03/28 11:30:40;;;;;;;6.40;2.30;;;18.10;49.20;;;;;;4879724;29;20177;-64
2021/03/28 11:33:13;;;;;;;6.25;1.92;;;18.00;49.20;;;;;;4863839;29;20169;-68
2021/03/28 11:35:43;;;;;;;6.68;1.92;;;18.10;49.40;;;;;;4863459;29;20313;-65
2021/03/28 11:38:18;;;;;;;5.75;2.00;;;18.10;49.40;;;;;;4847839;29;20190;-65
2021/03/28 11:40:50;;;;;;;4.03;1.48;;;18.10;49.40;;;;;;4880221;29;20204;-65
2021/03/28 11:43:31;;;;;;;4.57;1.50;;;18.10;49.40;;;;;;4880487;29;20166;-64
2021/03/28 11:46:24;;;;;;;5.43;1.63;;;18.10;49.50;;;;;;4864175;29;20636;-65
2021/03/28 11:48:53;;;;;;;7.05;1.85;;;18.10;49.60;;;;;;4880140;29;20173;-66
2021/03/28 11:51:23;;;;;;;3.15;1.58;;;18.10;49.60;;;;;;4878734;29;20246;-67
2021/03/28 11:54:04;;;;;;;6.43;1.38;;;18.20;49.70;;;;;;4863219;29;20245;-66
2021/03/28 11:56:49;;;;;;;4.10;1.65;;;18.20;50.00;;;;;;4879906;29;20181;-72
2021/03/28 11:59:18;;;;;;;6.25;1.85;;;18.40;50.20;;;;;;4879435;29;20173;-65
2021/03/28 12:01:56;;;;;;;2.90;1.30;;;18.60;50.00;;;;;;4882952;29;20239;-65
2021/03/28 12:04:43;;;;;;;3.55;1.58;;;18.80;49.60;;;;;;4898375;29;20172;-65
2021/03/28 12:07:21;;;;;;;4.00;1.40;;;19.30;48.60;;;;;;4881171;29;20579;-71
2021/03/28 12:09:58;;;;;;;2.45;1.30;;;19.70;47.90;;;;;;4882962;29;20176;-65
2021/03/28 12:12:42;;;;;;;4.30;1.17;;;20.10;47.40;;;;;;4882307;29;20235;-66
2021/03/28 12:15:42;;;;;;;4.38;1.58;;;20.30;47.20;;;;;;4882809;29;20600;-70
2021/03/28 12:18:28;;;;;;;3.55;1.73;;;20.40;46.90;;;;;;4898723;29;20173;-65
2021/03/28 12:21:01;;;;;;;2.97;1.52;;;20.60;46.90;;;;;;4897604;29;20211;-66
2021/03/28 12:23:30;;;;;;;2.88;1.38;;;20.60;46.70;;;;;;4898164;29;20168;-72
2021/03/28 12:26:12;;;;;;;2.40;1.20;;;20.70;46.70;;;;;;4881733;29;20188;-68
2021/03/28 12:28:44;;;;;;;3.65;1.30;;;20.70;46.60;;;;;;4880871;29;20252;-66
2021/03/28 12:31:41;;;;;;;3.60;1.27;;;20.70;46.80;;;;;;4898082;29;20269;-75
2021/03/28 12:34:33;;;;;;;4.85;1.58;;;20.60;46.90;;;;;;4896414;29;20187;-67
2021/03/28 12:37:08;;;;;;;4.00;1.42;;;20.60;47.00;;;;;;4896847;29;20659;-66
2021/03/28 12:39:43;;;;;;;1.75;1.05;;;20.50;46.90;;;;;;4897818;29;20179;-67
2021/03/28 12:42:21;;;;;;;2.53;1.50;;;20.50;46.90;;;;;;4898779;29;20215;-77
2021/03/28 12:44:54;;;;;;;4.43;1.17;;;20.40;46.90;;;;;;4902144;29;20588;-66
2021/03/28 12:47:29;;;;;;;5.35;1.20;;;20.30;47.00;;;;;;4880828;29;20188;-69
2021/03/28 12:50:05;;;;;;;4.55;1.75;;;20.30;47.20;;;;;;4880464;29;20226;-67
2021/03/28 12:52:38;;;;;;;4.80;1.42;;;20.30;47.40;;;;;;4881330;29;20169;-67
2021/03/28 12:55:27;;;;;;;3.88;1.25;;;20.30;47.50;;;;;;4895925;29;20201;-68
2021/03/28 12:57:54;;;;;;;3.75;1.60;;;20.30;47.60;;;;;;4896658;29;20183;-68
2021/03/28 13:00:29;;;;;;;2.50;1.02;;;20.20;47.80;;;;;;4880891;29;20188;-67
2021/03/28 13:02:55;;;;;;;2.03;1.20;;;20.30;47.80;;;;;;4896896;29;20747;-67
2021/03/28 13:05:30;;;;;;;3.78;1.40;;;20.20;47.80;;;;;;4880622;29;20181;-67
2021/03/28 13:07:57;;;;;;;2.88;1.30;;;20.30;47.90;;;;;;4880368;29;20175;-67
2021/03/28 13:10:34;;;;;;;2.78;1.20;;;20.30;48.00;;;;;;4879962;29;20224;-67
2021/03/28 13:13:14;;;;;;;2.88;1.40;;;20.30;48.00;;;;;;4880786;29;20192;-67
2021/03/28 13:15:52;;;;;;;4.97;1.73;;;20.30;48.00;;;;;;4897152;29;20168;-67
2021/03/28 13:18:31;;;;;;;1.98;0.93;;;20.30;48.00;;;;;;4896953;29;20231;-68
2021/03/28 13:21:09;;;;;;;2.17;0.90;;;20.30;48.10;;;;;;4897277;29;20243;-69
2021/03/28 13:23:37;;;;;;;2.95;1.50;;;20.30;48.10;;;;;;4896604;29;20714;-69
2021/03/28 13:26:05;;;;;;;2.80;1.17;;;20.30;48.20;;;;;;4880661;29;20169;-69
2021/03/28 13:28:31;;;;;;;2.83;1.20;;;20.30;48.20;;;;;;4897151;29;20180;-68
2021/03/28 13:31:19;;;;;;;2.10;1.25;;;20.20;48.30;;;;;;4864447;29;20592;-68
2021/03/28 13:33:45;;;;;;;2.22;0.90;;;20.10;48.40;;;;;;4880613;29;20179;-67
2021/03/28 13:36:26;;;;;;;2.70;1.30;;;20.10;48.60;;;;;;4864917;29;20192;-68
2021/03/28 13:39:06;;;;;;;2.10;1.05;;;20.10;48.70;;;;;;4895648;29;20735;-68
2021/03/28 13:41:35;;;;;;;3.03;1.45;;;20.10;48.70;;;;;;4895690;29;20219;-67
2021/03/28 13:44:23;;;;;;;3.35;1.17;;;20.10;48.80;;;;;;4880408;29;20180;-68
2021/03/28 13:46:56;;;;;;;3.92;1.27;;;20.10;48.80;;;;;;4895736;29;20192;-68
2021/03/28 13:49:30;;;;;;;3.40;1.10;;;20.10;48.80;;;;;;4880335;29;20263;-68
2021/03/28 13:52:06;;;;;;;3.25;1.27;;;20.10;48.80;;;;;;4911175;29;20176;-67
2021/03/28 13:54:31;;;;;;;2.78;1.00;;;20.10;48.70;;;;;;4895674;29;20184;-68
2021/03/28 13:56:58;;;;;;;1.25;0.80;;;20.10;48.80;;;;;;4897182;29;20546;-68
2021/03/28 13:59:28;;;;;;;2.50;1.13;;;20.20;48.80;;;;;;4879823;29;20268;-68
2021/03/28 14:01:59;;;;;;;2.72;1.10;;;20.20;48.70;;;;;;4882947;29;20831;-67
2021/03/28 14:04:27;;;;;;;2.15;1.30;;;20.20;48.80;;;;;;4895569;29;20173;-66
2021/03/28 14:07:15;;;;;;;2.97;1.10;;;20.20;48.90;;;;;;4910804;29;20181;-67
2021/03/28 14:09:45;;;;;;;2.42;1.05;;;20.10;49.00;;;;;;4911295;29;20645;-66
2021/03/28 14:12:54;;;;;;;1.90;1.08;;;20.10;49.00;;;;;;4911377;29;20176;-66